sensor_id;sensor_type;location;lat;lon;timestamp;P1;durP1;ratioP1;P2;durP2;ratioP2
12076;SDS011;12420;42.676;23.262;2024-01-30T00:00:39;4.27;;;3.87;;
12076;SDS011;12420;42.676;23.262;2024-01-30T00:03:06;5.97;;;3.97;;
12076;SDS011;12420;42.676;23.262;2024-01-30T00:05:32;4.57;;;3.73;;
12076;SDS011;12420;42.676;23.262;2024-01-30T00:08:00;4.97;;;3.73;;
12076;SDS011;12420;42.676;23.262;2024-01-30T00:10:28;5.90;;;3.80;;
12076;SDS011;12420;42.676;23.262;2024-01-30T00:12:54;5.23;;;4.00;;
12076;SDS011;12420;42.676;23.262;2024-01-30T00:15:21;6.67;;;4.60;;
12076;SDS011;12420;42.676;23.262;2024-01-30T00:17:48;6.40;;;4.63;;
12076;SDS011;12420;42.676;23.262;2024-01-30T00:20:17;6.47;;;4.20;;
12076;SDS011;12420;42.676;23.262;2024-01-30T00:22:44;10.10;;;4.90;;
12076;SDS011;12420;42.676;23.262;2024-01-30T00:25:12;5.60;;;4.20;;
12076;SDS011;12420;42.676;23.262;2024-01-30T00:27:39;6.13;;;4.37;;
12076;SDS011;12420;42.676;23.262;2024-01-30T00:30:06;7.70;;;4.70;;
12076;SDS011;12420;42.676;23.262;2024-01-30T00:32:34;5.57;;;4.40;;
12076;SDS011;12420;42.676;23.262;2024-01-30T00:35:00;6.60;;;5.37;;
12076;SDS011;12420;42.676;23.262;2024-01-30T00:37:27;5.83;;;4.47;;
12076;SDS011;12420;42.676;23.262;2024-01-30T00:39:54;6.43;;;4.83;;
12076;SDS011;12420;42.676;23.262;2024-01-30T00:42:22;5.57;;;4.40;;
12076;SDS011;12420;42.676;23.262;2024-01-30T00:44:50;7.43;;;5.10;;
12076;SDS011;12420;42.676;23.262;2024-01-30T00:47:17;8.87;;;6.70;;
12076;SDS011;12420;42.676;23.262;2024-01-30T00:49:43;9.50;;;6.30;;
12076;SDS011;12420;42.676;23.262;2024-01-30T00:52:11;9.57;;;6.53;;
12076;SDS011;12420;42.676;23.262;2024-01-30T00:54:37;11.67;;;7.17;;
12076;SDS011;12420;42.676;23.262;2024-01-30T00:57:04;7.40;;;5.43;;
12076;SDS011;12420;42.676;23.262;2024-01-30T00:59:32;9.33;;;6.00;;
12076;SDS011;12420;42.676;23.262;2024-01-30T01:01:59;7.93;;;5.73;;
12076;SDS011;12420;42.676;23.262;2024-01-30T01:04:26;9.33;;;6.17;;
12076;SDS011;12420;42.676;23.262;2024-01-30T01:06:53;8.90;;;6.27;;
12076;SDS011;12420;42.676;23.262;2024-01-30T01:09:20;7.23;;;5.23;;
12076;SDS011;12420;42.676;23.262;2024-01-30T01:11:47;7.10;;;5.07;;
12076;SDS011;12420;42.676;23.262;2024-01-30T01:14:13;6.87;;;5.07;;
12076;SDS011;12420;42.676;23.262;2024-01-30T01:16:42;7.70;;;4.80;;
12076;SDS011;12420;42.676;23.262;2024-01-30T01:19:08;8.13;;;6.30;;
12076;SDS011;12420;42.676;23.262;2024-01-30T01:21:35;8.33;;;5.83;;
12076;SDS011;12420;42.676;23.262;2024-01-30T01:24:02;8.40;;;6.00;;
12076;SDS011;12420;42.676;23.262;2024-01-30T01:26:29;6.80;;;5.30;;
12076;SDS011;12420;42.676;23.262;2024-01-30T01:28:56;8.40;;;5.67;;
12076;SDS011;12420;42.676;23.262;2024-01-30T01:31:23;8.23;;;5.93;;
12076;SDS011;12420;42.676;23.262;2024-01-30T01:33:51;9.60;;;5.50;;
12076;SDS011;12420;42.676;23.262;2024-01-30T01:36:18;5.50;;;4.53;;
12076;SDS011;12420;42.676;23.262;2024-01-30T01:38:44;5.13;;;3.90;;
12076;SDS011;12420;42.676;23.262;2024-01-30T01:41:11;5.37;;;4.20;;
12076;SDS011;12420;42.676;23.262;2024-01-30T01:43:38;4.93;;;4.10;;
12076;SDS011;12420;42.676;23.262;2024-01-30T01:46:05;5.33;;;4.20;;
12076;SDS011;12420;42.676;23.262;2024-01-30T01:48:32;5.23;;;4.33;;
12076;SDS011;12420;42.676;23.262;2024-01-30T01:51:01;5.27;;;4.10;;
12076;SDS011;12420;42.676;23.262;2024-01-30T01:53:28;6.10;;;4.40;;
12076;SDS011;12420;42.676;23.262;2024-01-30T01:55:55;4.83;;;4.03;;
12076;SDS011;12420;42.676;23.262;2024-01-30T01:58:23;4.83;;;4.20;;
12076;SDS011;12420;42.676;23.262;2024-01-30T02:00:55;7.83;;;5.20;;
12076;SDS011;12420;42.676;23.262;2024-01-30T02:03:23;6.63;;;4.93;;
12076;SDS011;12420;42.676;23.262;2024-01-30T02:05:50;7.57;;;5.33;;
12076;SDS011;12420;42.676;23.262;2024-01-30T02:08:18;7.47;;;4.83;;
12076;SDS011;12420;42.676;23.262;2024-01-30T02:10:45;5.83;;;4.47;;
12076;SDS011;12420;42.676;23.262;2024-01-30T02:13:12;6.97;;;4.70;;
12076;SDS011;12420;42.676;23.262;2024-01-30T02:15:39;5.40;;;4.27;;
12076;SDS011;12420;42.676;23.262;2024-01-30T02:18:06;4.70;;;3.93;;
12076;SDS011;12420;42.676;23.262;2024-01-30T02:20:33;4.20;;;3.60;;
12076;SDS011;12420;42.676;23.262;2024-01-30T02:23:03;4.43;;;3.73;;
12076;SDS011;12420;42.676;23.262;2024-01-30T02:25:31;4.43;;;4.00;;
12076;SDS011;12420;42.676;23.262;2024-01-30T02:27:59;6.73;;;4.40;;
12076;SDS011;12420;42.676;23.262;2024-01-30T02:30:26;5.87;;;3.70;;
12076;SDS011;12420;42.676;23.262;2024-01-30T02:32:52;4.47;;;3.67;;
12076;SDS011;12420;42.676;23.262;2024-01-30T02:35:19;6.23;;;3.70;;
12076;SDS011;12420;42.676;23.262;2024-01-30T02:37:46;4.57;;;3.83;;
12076;SDS011;12420;42.676;23.262;2024-01-30T02:40:14;4.50;;;3.40;;
12076;SDS011;12420;42.676;23.262;2024-01-30T02:42:41;4.53;;;3.60;;
12076;SDS011;12420;42.676;23.262;2024-01-30T02:45:09;4.90;;;3.13;;
12076;SDS011;12420;42.676;23.262;2024-01-30T02:47:36;5.60;;;3.83;;
12076;SDS011;12420;42.676;23.262;2024-01-30T02:50:03;5.67;;;3.73;;
12076;SDS011;12420;42.676;23.262;2024-01-30T02:52:30;3.90;;;3.50;;
12076;SDS011;12420;42.676;23.262;2024-01-30T02:54:57;4.80;;;3.13;;
12076;SDS011;12420;42.676;23.262;2024-01-30T02:57:26;3.90;;;3.37;;
12076;SDS011;12420;42.676;23.262;2024-01-30T02:59:52;4.03;;;2.80;;
12076;SDS011;12420;42.676;23.262;2024-01-30T03:02:19;4.03;;;3.50;;
12076;SDS011;12420;42.676;23.262;2024-01-30T03:04:46;4.23;;;3.37;;
12076;SDS011;12420;42.676;23.262;2024-01-30T03:07:13;4.07;;;3.13;;
12076;SDS011;12420;42.676;23.262;2024-01-30T03:09:40;3.97;;;3.40;;
12076;SDS011;12420;42.676;23.262;2024-01-30T03:12:07;4.13;;;3.57;;
12076;SDS011;12420;42.676;23.262;2024-01-30T03:14:36;4.53;;;3.40;;
12076;SDS011;12420;42.676;23.262;2024-01-30T03:17:03;5.10;;;3.50;;
12076;SDS011;12420;42.676;23.262;2024-01-30T03:19:29;3.80;;;3.40;;
12076;SDS011;12420;42.676;23.262;2024-01-30T03:21:56;5.87;;;3.23;;
12076;SDS011;12420;42.676;23.262;2024-01-30T03:24:23;4.60;;;3.60;;
12076;SDS011;12420;42.676;23.262;2024-01-30T03:26:49;4.73;;;3.40;;
12076;SDS011;12420;42.676;23.262;2024-01-30T03:29:16;3.63;;;3.27;;
12076;SDS011;12420;42.676;23.262;2024-01-30T03:31:45;4.60;;;3.53;;
12076;SDS011;12420;42.676;23.262;2024-01-30T03:34:11;4.80;;;3.77;;
12076;SDS011;12420;42.676;23.262;2024-01-30T03:36:38;4.67;;;4.03;;
12076;SDS011;12420;42.676;23.262;2024-01-30T03:39:05;4.50;;;3.37;;
12076;SDS011;12420;42.676;23.262;2024-01-30T03:41:31;7.47;;;3.60;;
12076;SDS011;12420;42.676;23.262;2024-01-30T03:43:58;4.60;;;3.50;;
12076;SDS011;12420;42.676;23.262;2024-01-30T03:46:25;5.10;;;3.30;;
12076;SDS011;12420;42.676;23.262;2024-01-30T03:48:53;4.37;;;3.17;;
12076;SDS011;12420;42.676;23.262;2024-01-30T03:51:20;5.97;;;3.63;;
12076;SDS011;12420;42.676;23.262;2024-01-30T03:53:47;4.93;;;3.33;;
12076;SDS011;12420;42.676;23.262;2024-01-30T03:56:13;3.77;;;3.30;;
12076;SDS011;12420;42.676;23.262;2024-01-30T03:58:40;4.33;;;3.20;;
12076;SDS011;12420;42.676;23.262;2024-01-30T04:01:07;3.63;;;3.10;;
12076;SDS011;12420;42.676;23.262;2024-01-30T04:03:39;5.10;;;3.63;;
12076;SDS011;12420;42.676;23.262;2024-01-30T04:06:07;4.40;;;3.23;;
12076;SDS011;12420;42.676;23.262;2024-01-30T04:08:34;3.53;;;3.23;;
12076;SDS011;12420;42.676;23.262;2024-01-30T04:11:02;6.03;;;3.50;;
12076;SDS011;12420;42.676;23.262;2024-01-30T04:13:30;3.80;;;2.90;;
12076;SDS011;12420;42.676;23.262;2024-01-30T04:15:58;4.67;;;3.47;;
12076;SDS011;12420;42.676;23.262;2024-01-30T04:18:26;3.30;;;3.00;;
12076;SDS011;12420;42.676;23.262;2024-01-30T04:20:53;4.40;;;3.40;;
12076;SDS011;12420;42.676;23.262;2024-01-30T04:23:22;4.40;;;3.33;;
12076;SDS011;12420;42.676;23.262;2024-01-30T04:25:49;3.60;;;3.20;;
12076;SDS011;12420;42.676;23.262;2024-01-30T04:28:16;3.90;;;3.50;;
12076;SDS011;12420;42.676;23.262;2024-01-30T04:30:43;5.73;;;3.40;;
12076;SDS011;12420;42.676;23.262;2024-01-30T04:33:10;3.80;;;3.00;;
12076;SDS011;12420;42.676;23.262;2024-01-30T04:35:37;6.17;;;3.80;;
12076;SDS011;12420;42.676;23.262;2024-01-30T04:38:04;7.03;;;3.90;;
12076;SDS011;12420;42.676;23.262;2024-01-30T04:40:32;7.10;;;3.67;;
12076;SDS011;12420;42.676;23.262;2024-01-30T04:42:59;5.50;;;3.70;;
12076;SDS011;12420;42.676;23.262;2024-01-30T04:45:27;4.37;;;3.03;;
12076;SDS011;12420;42.676;23.262;2024-01-30T04:47:54;5.03;;;2.97;;
12076;SDS011;12420;42.676;23.262;2024-01-30T04:50:20;4.67;;;2.93;;
12076;SDS011;12420;42.676;23.262;2024-01-30T04:52:47;4.07;;;3.50;;
12076;SDS011;12420;42.676;23.262;2024-01-30T04:55:14;3.87;;;3.23;;
12076;SDS011;12420;42.676;23.262;2024-01-30T04:57:43;4.77;;;3.37;;
12076;SDS011;12420;42.676;23.262;2024-01-30T05:00:10;5.40;;;3.33;;
12076;SDS011;12420;42.676;23.262;2024-01-30T05:02:37;11.93;;;3.70;;
12076;SDS011;12420;42.676;23.262;2024-01-30T05:05:04;3.87;;;3.20;;
12076;SDS011;12420;42.676;23.262;2024-01-30T05:07:32;5.03;;;3.13;;
12076;SDS011;12420;42.676;23.262;2024-01-30T05:09:59;4.97;;;3.67;;
12076;SDS011;12420;42.676;23.262;2024-01-30T05:12:26;4.60;;;3.50;;
12076;SDS011;12420;42.676;23.262;2024-01-30T05:14:54;4.90;;;3.50;;
12076;SDS011;12420;42.676;23.262;2024-01-30T05:17:21;7.27;;;4.20;;
12076;SDS011;12420;42.676;23.262;2024-01-30T05:19:48;6.17;;;4.03;;
12076;SDS011;12420;42.676;23.262;2024-01-30T05:22:14;10.03;;;4.57;;
12076;SDS011;12420;42.676;23.262;2024-01-30T05:24:44;11.63;;;4.20;;
12076;SDS011;12420;42.676;23.262;2024-01-30T05:27:11;9.33;;;5.40;;
12076;SDS011;12420;42.676;23.262;2024-01-30T05:29:39;4.23;;;3.80;;
12076;SDS011;12420;42.676;23.262;2024-01-30T05:32:07;13.47;;;4.50;;
12076;SDS011;12420;42.676;23.262;2024-01-30T05:34:35;9.03;;;4.37;;
12076;SDS011;12420;42.676;23.262;2024-01-30T05:37:03;6.73;;;4.27;;
12076;SDS011;12420;42.676;23.262;2024-01-30T05:39:30;6.73;;;4.23;;
12076;SDS011;12420;42.676;23.262;2024-01-30T05:41:58;12.13;;;4.67;;
12076;SDS011;12420;42.676;23.262;2024-01-30T05:44:25;8.07;;;4.83;;
12076;SDS011;12420;42.676;23.262;2024-01-30T05:46:52;13.67;;;5.00;;
12076;SDS011;12420;42.676;23.262;2024-01-30T05:49:20;10.17;;;5.43;;
12076;SDS011;12420;42.676;23.262;2024-01-30T05:51:47;8.63;;;5.23;;
12076;SDS011;12420;42.676;23.262;2024-01-30T05:54:14;15.03;;;6.67;;
12076;SDS011;12420;42.676;23.262;2024-01-30T05:56:40;10.77;;;6.37;;
12076;SDS011;12420;42.676;23.262;2024-01-30T05:59:07;13.43;;;5.27;;
12076;SDS011;12420;42.676;23.262;2024-01-30T06:01:34;10.27;;;5.10;;
12076;SDS011;12420;42.676;23.262;2024-01-30T06:04:01;10.17;;;5.00;;
12076;SDS011;12420;42.676;23.262;2024-01-30T06:06:29;8.83;;;5.33;;
12076;SDS011;12420;42.676;23.262;2024-01-30T06:08:56;12.63;;;6.20;;
12076;SDS011;12420;42.676;23.262;2024-01-30T06:11:27;10.13;;;6.70;;
12076;SDS011;12420;42.676;23.262;2024-01-30T06:13:54;15.90;;;7.03;;
12076;SDS011;12420;42.676;23.262;2024-01-30T06:16:21;10.33;;;6.47;;
12076;SDS011;12420;42.676;23.262;2024-01-30T06:18:54;10.47;;;6.60;;
12076;SDS011;12420;42.676;23.262;2024-01-30T06:21:21;8.90;;;6.47;;
12076;SDS011;12420;42.676;23.262;2024-01-30T06:23:50;9.97;;;6.40;;
12076;SDS011;12420;42.676;23.262;2024-01-30T06:26:17;12.70;;;5.70;;
12076;SDS011;12420;42.676;23.262;2024-01-30T06:28:44;11.80;;;5.67;;
12076;SDS011;12420;42.676;23.262;2024-01-30T06:31:10;10.20;;;5.07;;
12076;SDS011;12420;42.676;23.262;2024-01-30T06:33:37;9.03;;;4.90;;
12076;SDS011;12420;42.676;23.262;2024-01-30T06:36:07;10.50;;;4.70;;
12076;SDS011;12420;42.676;23.262;2024-01-30T06:38:34;12.00;;;4.67;;
12076;SDS011;12420;42.676;23.262;2024-01-30T06:41:03;13.10;;;6.63;;
12076;SDS011;12420;42.676;23.262;2024-01-30T06:43:30;15.80;;;7.13;;
12076;SDS011;12420;42.676;23.262;2024-01-30T06:45:56;11.13;;;5.67;;
12076;SDS011;12420;42.676;23.262;2024-01-30T06:48:24;9.77;;;5.50;;
12076;SDS011;12420;42.676;23.262;2024-01-30T06:50:52;10.27;;;5.00;;
12076;SDS011;12420;42.676;23.262;2024-01-30T06:53:20;8.63;;;3.80;;
12076;SDS011;12420;42.676;23.262;2024-01-30T06:55:47;8.40;;;3.90;;
12076;SDS011;12420;42.676;23.262;2024-01-30T06:58:15;6.47;;;2.90;;
12076;SDS011;12420;42.676;23.262;2024-01-30T07:00:42;6.80;;;3.17;;
12076;SDS011;12420;42.676;23.262;2024-01-30T07:03:09;7.87;;;5.50;;
12076;SDS011;12420;42.676;23.262;2024-01-30T07:05:36;10.13;;;3.50;;
12076;SDS011;12420;42.676;23.262;2024-01-30T07:08:03;5.03;;;3.60;;
12076;SDS011;12420;42.676;23.262;2024-01-30T07:10:30;5.43;;;3.77;;
12076;SDS011;12420;42.676;23.262;2024-01-30T07:12:57;6.37;;;3.30;;
12076;SDS011;12420;42.676;23.262;2024-01-30T07:15:25;5.83;;;3.70;;
12076;SDS011;12420;42.676;23.262;2024-01-30T07:17:52;8.23;;;3.67;;
12076;SDS011;12420;42.676;23.262;2024-01-30T07:20:19;4.17;;;2.70;;
12076;SDS011;12420;42.676;23.262;2024-01-30T07:22:46;2.80;;;2.40;;
12076;SDS011;12420;42.676;23.262;2024-01-30T07:25:13;3.50;;;2.43;;
12076;SDS011;12420;42.676;23.262;2024-01-30T07:27:40;4.03;;;2.83;;
12076;SDS011;12420;42.676;23.262;2024-01-30T07:30:07;3.57;;;2.73;;
12076;SDS011;12420;42.676;23.262;2024-01-30T07:32:36;3.83;;;2.80;;
12076;SDS011;12420;42.676;23.262;2024-01-30T07:35:02;6.90;;;4.60;;
12076;SDS011;12420;42.676;23.262;2024-01-30T07:37:30;8.00;;;3.60;;
12076;SDS011;12420;42.676;23.262;2024-01-30T07:39:57;3.40;;;2.80;;
12076;SDS011;12420;42.676;23.262;2024-01-30T07:42:23;9.47;;;7.83;;
12076;SDS011;12420;42.676;23.262;2024-01-30T07:44:50;2.73;;;2.30;;
12076;SDS011;12420;42.676;23.262;2024-01-30T07:47:17;2.57;;;2.37;;
12076;SDS011;12420;42.676;23.262;2024-01-30T07:49:45;7.70;;;6.57;;
12076;SDS011;12420;42.676;23.262;2024-01-30T07:52:13;5.67;;;4.40;;
12076;SDS011;12420;42.676;23.262;2024-01-30T07:54:48;8.97;;;4.97;;
12076;SDS011;12420;42.676;23.262;2024-01-30T07:57:15;7.10;;;5.07;;
12076;SDS011;12420;42.676;23.262;2024-01-30T07:59:43;3.00;;;2.70;;
12076;SDS011;12420;42.676;23.262;2024-01-30T08:02:10;6.13;;;3.40;;
12076;SDS011;12420;42.676;23.262;2024-01-30T08:04:38;3.03;;;2.73;;
12076;SDS011;12420;42.676;23.262;2024-01-30T08:07:07;5.40;;;4.30;;
12076;SDS011;12420;42.676;23.262;2024-01-30T08:09:33;4.50;;;3.37;;
12076;SDS011;12420;42.676;23.262;2024-01-30T08:12:00;3.43;;;3.10;;
12076;SDS011;12420;42.676;23.262;2024-01-30T08:14:27;3.60;;;3.00;;
12076;SDS011;12420;42.676;23.262;2024-01-30T08:16:54;7.93;;;3.37;;
12076;SDS011;12420;42.676;23.262;2024-01-30T08:19:21;7.80;;;4.57;;
12076;SDS011;12420;42.676;23.262;2024-01-30T08:21:48;8.47;;;4.10;;
12076;SDS011;12420;42.676;23.262;2024-01-30T08:24:16;9.90;;;3.90;;
12076;SDS011;12420;42.676;23.262;2024-01-30T08:26:43;6.43;;;3.67;;
12076;SDS011;12420;42.676;23.262;2024-01-30T08:29:10;4.33;;;3.50;;
12076;SDS011;12420;42.676;23.262;2024-01-30T08:31:37;3.03;;;2.77;;
12076;SDS011;12420;42.676;23.262;2024-01-30T08:34:04;2.90;;;2.70;;
12076;SDS011;12420;42.676;23.262;2024-01-30T08:36:31;5.93;;;3.10;;
12076;SDS011;12420;42.676;23.262;2024-01-30T08:38:58;3.93;;;3.00;;
12076;SDS011;12420;42.676;23.262;2024-01-30T08:41:26;3.87;;;2.93;;
12076;SDS011;12420;42.676;23.262;2024-01-30T08:43:53;4.27;;;3.13;;
12076;SDS011;12420;42.676;23.262;2024-01-30T08:46:20;4.13;;;3.20;;
12076;SDS011;12420;42.676;23.262;2024-01-30T08:48:47;3.50;;;2.93;;
12076;SDS011;12420;42.676;23.262;2024-01-30T08:51:14;12.83;;;3.23;;
12076;SDS011;12420;42.676;23.262;2024-01-30T08:53:41;5.10;;;3.73;;
12076;SDS011;12420;42.676;23.262;2024-01-30T08:56:08;8.13;;;3.70;;
12076;SDS011;12420;42.676;23.262;2024-01-30T08:58:36;3.20;;;2.90;;
12076;SDS011;12420;42.676;23.262;2024-01-30T09:01:03;6.23;;;3.47;;
12076;SDS011;12420;42.676;23.262;2024-01-30T09:03:30;7.23;;;3.90;;
12076;SDS011;12420;42.676;23.262;2024-01-30T09:05:57;8.70;;;4.30;;
12076;SDS011;12420;42.676;23.262;2024-01-30T09:08:24;3.73;;;3.30;;
12076;SDS011;12420;42.676;23.262;2024-01-30T09:10:51;3.90;;;3.23;;
12076;SDS011;12420;42.676;23.262;2024-01-30T09:13:17;4.60;;;3.60;;
12076;SDS011;12420;42.676;23.262;2024-01-30T09:15:46;5.13;;;3.67;;
12076;SDS011;12420;42.676;23.262;2024-01-30T09:18:13;4.47;;;3.37;;
12076;SDS011;12420;42.676;23.262;2024-01-30T09:20:39;3.93;;;3.33;;
12076;SDS011;12420;42.676;23.262;2024-01-30T09:23:06;7.37;;;3.27;;
12076;SDS011;12420;42.676;23.262;2024-01-30T09:25:33;5.87;;;3.60;;
12076;SDS011;12420;42.676;23.262;2024-01-30T09:28:00;10.00;;;4.50;;
12076;SDS011;12420;42.676;23.262;2024-01-30T09:30:27;4.20;;;3.10;;
12076;SDS011;12420;42.676;23.262;2024-01-30T09:32:55;8.63;;;3.60;;
12076;SDS011;12420;42.676;23.262;2024-01-30T09:35:22;9.77;;;4.17;;
12076;SDS011;12420;42.676;23.262;2024-01-30T09:37:49;4.70;;;3.77;;
12076;SDS011;12420;42.676;23.262;2024-01-30T09:40:18;12.17;;;6.57;;
12076;SDS011;12420;42.676;23.262;2024-01-30T09:42:46;8.60;;;4.53;;
12076;SDS011;12420;42.676;23.262;2024-01-30T09:45:14;4.57;;;3.40;;
12076;SDS011;12420;42.676;23.262;2024-01-30T09:47:41;7.33;;;3.77;;
12076;SDS011;12420;42.676;23.262;2024-01-30T09:50:11;5.00;;;3.73;;
12076;SDS011;12420;42.676;23.262;2024-01-30T09:52:39;4.13;;;3.50;;
12076;SDS011;12420;42.676;23.262;2024-01-30T09:55:06;3.90;;;3.30;;
12076;SDS011;12420;42.676;23.262;2024-01-30T09:57:33;5.70;;;3.73;;
12076;SDS011;12420;42.676;23.262;2024-01-30T10:00:00;6.30;;;3.93;;
12076;SDS011;12420;42.676;23.262;2024-01-30T10:02:27;4.03;;;3.10;;
12076;SDS011;12420;42.676;23.262;2024-01-30T10:04:54;4.33;;;3.17;;
12076;SDS011;12420;42.676;23.262;2024-01-30T10:07:23;4.87;;;3.43;;
12076;SDS011;12420;42.676;23.262;2024-01-30T10:09:49;3.40;;;2.93;;
12076;SDS011;12420;42.676;23.262;2024-01-30T10:12:16;5.23;;;3.63;;
12076;SDS011;12420;42.676;23.262;2024-01-30T10:14:43;10.67;;;5.07;;
12076;SDS011;12420;42.676;23.262;2024-01-30T10:17:10;6.00;;;4.20;;
12076;SDS011;12420;42.676;23.262;2024-01-30T10:19:38;4.23;;;3.67;;
12076;SDS011;12420;42.676;23.262;2024-01-30T10:22:06;3.37;;;2.97;;
12076;SDS011;12420;42.676;23.262;2024-01-30T10:24:35;4.87;;;3.30;;
12076;SDS011;12420;42.676;23.262;2024-01-30T10:27:03;6.50;;;2.97;;
12076;SDS011;12420;42.676;23.262;2024-01-30T10:29:31;3.13;;;2.73;;
12076;SDS011;12420;42.676;23.262;2024-01-30T10:31:58;3.20;;;2.90;;
12076;SDS011;12420;42.676;23.262;2024-01-30T10:34:25;6.17;;;3.40;;
12076;SDS011;12420;42.676;23.262;2024-01-30T10:36:55;7.17;;;2.93;;
12076;SDS011;12420;42.676;23.262;2024-01-30T10:39:28;3.10;;;2.80;;
12076;SDS011;12420;42.676;23.262;2024-01-30T10:41:58;3.27;;;2.70;;
12076;SDS011;12420;42.676;23.262;2024-01-30T10:44:30;6.60;;;2.90;;
12076;SDS011;12420;42.676;23.262;2024-01-30T10:47:06;6.47;;;3.00;;
12076;SDS011;12420;42.676;23.262;2024-01-30T10:49:37;3.40;;;2.93;;
12076;SDS011;12420;42.676;23.262;2024-01-30T10:52:05;5.73;;;2.90;;
12076;SDS011;12420;42.676;23.262;2024-01-30T10:54:34;3.33;;;2.90;;
12076;SDS011;12420;42.676;23.262;2024-01-30T10:57:04;9.90;;;3.70;;
12076;SDS011;12420;42.676;23.262;2024-01-30T10:59:32;4.83;;;3.30;;
12076;SDS011;12420;42.676;23.262;2024-01-30T11:01:59;3.20;;;2.80;;
12076;SDS011;12420;42.676;23.262;2024-01-30T11:04:27;6.37;;;3.03;;
12076;SDS011;12420;42.676;23.262;2024-01-30T11:06:53;4.53;;;3.07;;
12076;SDS011;12420;42.676;23.262;2024-01-30T11:09:23;3.00;;;2.70;;
12076;SDS011;12420;42.676;23.262;2024-01-30T11:11:50;4.23;;;2.80;;
12076;SDS011;12420;42.676;23.262;2024-01-30T11:14:24;3.73;;;3.17;;
12076;SDS011;12420;42.676;23.262;2024-01-30T11:16:51;3.50;;;3.10;;
12076;SDS011;12420;42.676;23.262;2024-01-30T11:19:22;3.50;;;3.20;;
12076;SDS011;12420;42.676;23.262;2024-01-30T11:21:50;4.10;;;3.50;;
12076;SDS011;12420;42.676;23.262;2024-01-30T11:24:19;3.67;;;3.10;;
12076;SDS011;12420;42.676;23.262;2024-01-30T11:26:47;2.87;;;2.60;;
12076;SDS011;12420;42.676;23.262;2024-01-30T11:29:16;2.93;;;2.63;;
12076;SDS011;12420;42.676;23.262;2024-01-30T11:31:52;6.90;;;3.80;;
12076;SDS011;12420;42.676;23.262;2024-01-30T11:34:20;5.87;;;2.90;;
12076;SDS011;12420;42.676;23.262;2024-01-30T11:36:50;4.17;;;3.20;;
12076;SDS011;12420;42.676;23.262;2024-01-30T11:39:23;5.23;;;3.00;;
12076;SDS011;12420;42.676;23.262;2024-01-30T11:41:51;2.77;;;2.57;;
12076;SDS011;12420;42.676;23.262;2024-01-30T11:44:18;5.90;;;3.40;;
12076;SDS011;12420;42.676;23.262;2024-01-30T11:46:46;3.87;;;2.70;;
12076;SDS011;12420;42.676;23.262;2024-01-30T11:49:15;4.70;;;3.27;;
12076;SDS011;12420;42.676;23.262;2024-01-30T11:51:43;3.90;;;3.50;;
12076;SDS011;12420;42.676;23.262;2024-01-30T11:54:13;3.23;;;2.63;;
12076;SDS011;12420;42.676;23.262;2024-01-30T11:56:40;3.77;;;2.87;;
12076;SDS011;12420;42.676;23.262;2024-01-30T11:59:08;7.37;;;3.00;;
12076;SDS011;12420;42.676;23.262;2024-01-30T12:01:35;3.50;;;3.13;;
12076;SDS011;12420;42.676;23.262;2024-01-30T12:04:02;6.23;;;3.73;;
12076;SDS011;12420;42.676;23.262;2024-01-30T12:06:35;6.00;;;4.00;;
12076;SDS011;12420;42.676;23.262;2024-01-30T12:09:02;4.17;;;3.50;;
12076;SDS011;12420;42.676;23.262;2024-01-30T12:11:30;3.40;;;3.10;;
12076;SDS011;12420;42.676;23.262;2024-01-30T12:13:57;5.30;;;4.17;;
12076;SDS011;12420;42.676;23.262;2024-01-30T12:16:25;3.70;;;3.13;;
12076;SDS011;12420;42.676;23.262;2024-01-30T12:18:59;4.57;;;3.60;;
12076;SDS011;12420;42.676;23.262;2024-01-30T12:21:26;9.97;;;3.50;;
12076;SDS011;12420;42.676;23.262;2024-01-30T12:23:54;9.67;;;3.30;;
12076;SDS011;12420;42.676;23.262;2024-01-30T12:26:23;4.73;;;3.60;;
12076;SDS011;12420;42.676;23.262;2024-01-30T12:28:50;3.30;;;3.00;;
12076;SDS011;12420;42.676;23.262;2024-01-30T12:31:17;4.40;;;3.00;;
12076;SDS011;12420;42.676;23.262;2024-01-30T12:33:44;6.07;;;3.23;;
12076;SDS011;12420;42.676;23.262;2024-01-30T12:36:11;6.20;;;3.23;;
12076;SDS011;12420;42.676;23.262;2024-01-30T12:38:38;4.03;;;3.07;;
12076;SDS011;12420;42.676;23.262;2024-01-30T12:41:08;4.63;;;4.03;;
12076;SDS011;12420;42.676;23.262;2024-01-30T12:43:35;6.87;;;3.73;;
12076;SDS011;12420;42.676;23.262;2024-01-30T12:46:02;5.53;;;3.90;;
12076;SDS011;12420;42.676;23.262;2024-01-30T12:48:29;3.67;;;3.33;;
12076;SDS011;12420;42.676;23.262;2024-01-30T12:50:56;3.77;;;3.37;;
12076;SDS011;12420;42.676;23.262;2024-01-30T12:53:23;4.73;;;3.50;;
12076;SDS011;12420;42.676;23.262;2024-01-30T12:55:50;4.87;;;3.37;;
12076;SDS011;12420;42.676;23.262;2024-01-30T12:58:18;7.40;;;3.90;;
12076;SDS011;12420;42.676;23.262;2024-01-30T13:00:45;4.90;;;3.70;;
12076;SDS011;12420;42.676;23.262;2024-01-30T13:03:12;3.53;;;3.23;;
12076;SDS011;12420;42.676;23.262;2024-01-30T13:05:39;3.77;;;3.47;;
12076;SDS011;12420;42.676;23.262;2024-01-30T13:08:06;4.20;;;3.20;;
12076;SDS011;12420;42.676;23.262;2024-01-30T13:10:34;3.97;;;3.57;;
12076;SDS011;12420;42.676;23.262;2024-01-30T13:13:04;4.83;;;3.50;;
12076;SDS011;12420;42.676;23.262;2024-01-30T13:15:32;3.43;;;3.03;;
12076;SDS011;12420;42.676;23.262;2024-01-30T13:17:58;5.80;;;3.57;;
12076;SDS011;12420;42.676;23.262;2024-01-30T13:20:25;5.70;;;3.70;;
12076;SDS011;12420;42.676;23.262;2024-01-30T13:22:52;3.87;;;3.33;;
12076;SDS011;12420;42.676;23.262;2024-01-30T13:25:19;3.57;;;3.27;;
12076;SDS011;12420;42.676;23.262;2024-01-30T13:27:45;7.27;;;4.03;;
12076;SDS011;12420;42.676;23.262;2024-01-30T13:30:12;5.40;;;3.83;;
12076;SDS011;12420;42.676;23.262;2024-01-30T13:32:41;4.40;;;3.40;;
12076;SDS011;12420;42.676;23.262;2024-01-30T13:35:09;4.60;;;3.27;;
12076;SDS011;12420;42.676;23.262;2024-01-30T13:37:36;5.33;;;4.07;;
12076;SDS011;12420;42.676;23.262;2024-01-30T13:40:03;9.17;;;3.73;;
12076;SDS011;12420;42.676;23.262;2024-01-30T13:42:32;5.73;;;3.67;;
12076;SDS011;12420;42.676;23.262;2024-01-30T13:44:59;6.60;;;3.90;;
12076;SDS011;12420;42.676;23.262;2024-01-30T13:47:26;5.20;;;3.87;;
12076;SDS011;12420;42.676;23.262;2024-01-30T13:49:54;4.57;;;3.90;;
12076;SDS011;12420;42.676;23.262;2024-01-30T13:52:21;6.33;;;3.83;;
12076;SDS011;12420;42.676;23.262;2024-01-30T13:54:48;9.30;;;4.20;;
12076;SDS011;12420;42.676;23.262;2024-01-30T13:57:16;7.80;;;4.00;;
12076;SDS011;12420;42.676;23.262;2024-01-30T13:59:44;4.10;;;3.70;;
12076;SDS011;12420;42.676;23.262;2024-01-30T14:02:11;5.47;;;4.17;;
12076;SDS011;12420;42.676;23.262;2024-01-30T14:04:38;5.50;;;3.97;;
12076;SDS011;12420;42.676;23.262;2024-01-30T14:07:06;9.13;;;6.37;;
12076;SDS011;12420;42.676;23.262;2024-01-30T14:09:33;8.40;;;5.90;;
12076;SDS011;12420;42.676;23.262;2024-01-30T14:12:01;5.20;;;4.00;;
12076;SDS011;12420;42.676;23.262;2024-01-30T14:14:28;5.60;;;4.03;;
12076;SDS011;12420;42.676;23.262;2024-01-30T14:16:55;11.07;;;4.23;;
12076;SDS011;12420;42.676;23.262;2024-01-30T14:19:21;5.67;;;4.13;;
12076;SDS011;12420;42.676;23.262;2024-01-30T14:21:48;4.70;;;3.97;;
12076;SDS011;12420;42.676;23.262;2024-01-30T14:24:16;4.67;;;4.10;;
12076;SDS011;12420;42.676;23.262;2024-01-30T14:26:43;8.73;;;4.37;;
12076;SDS011;12420;42.676;23.262;2024-01-30T14:29:10;4.47;;;4.03;;
12076;SDS011;12420;42.676;23.262;2024-01-30T14:31:37;6.03;;;4.30;;
12076;SDS011;12420;42.676;23.262;2024-01-30T14:34:04;7.43;;;4.40;;